sensor_id;sensor_type;location;lat;lon;timestamp;P1;durP1;ratioP1;P2;durP2;ratioP2
21402;SDS011;10862;51.886;17.078;2023-02-15T00:00:20;80.97;;;35.90;;
21402;SDS011;10862;51.886;17.078;2023-02-15T00:02:46;75.17;;;34.83;;
21402;SDS011;10862;51.886;17.078;2023-02-15T00:05:11;90.00;;;36.60;;
21402;SDS011;10862;51.886;17.078;2023-02-15T00:07:37;94.33;;;43.57;;
21402;SDS011;10862;51.886;17.078;2023-02-15T00:10:03;111.10;;;50.80;;
21402;SDS011;10862;51.886;17.078;2023-02-15T00:12:29;113.63;;;62.43;;
21402;SDS011;10862;51.886;17.078;2023-02-15T00:14:55;142.00;;;62.23;;
21402;SDS011;10862;51.886;17.078;2023-02-15T00:17:21;114.60;;;55.03;;
21402;SDS011;10862;51.886;17.078;2023-02-15T00:19:47;102.17;;;53.97;;
21402;SDS011;10862;51.886;17.078;2023-02-15T00:22:12;103.17;;;54.57;;
21402;SDS011;10862;51.886;17.078;2023-02-15T00:24:38;94.57;;;46.93;;
21402;SDS011;10862;51.886;17.078;2023-02-15T00:27:04;110.30;;;54.43;;
21402;SDS011;10862;51.886;17.078;2023-02-15T00:29:29;115.27;;;55.73;;
21402;SDS011;10862;51.886;17.078;2023-02-15T00:31:55;181.53;;;75.73;;
21402;SDS011;10862;51.886;17.078;2023-02-15T00:34:22;193.27;;;84.50;;
21402;SDS011;10862;51.886;17.078;2023-02-15T00:36:50;163.33;;;78.73;;
21402;SDS011;10862;51.886;17.078;2023-02-15T00:39:17;131.00;;;66.57;;
21402;SDS011;10862;51.886;17.078;2023-02-15T00:41:43;123.13;;;61.93;;
21402;SDS011;10862;51.886;17.078;2023-02-15T00:44:10;112.73;;;58.40;;
21402;SDS011;10862;51.886;17.078;2023-02-15T00:46:36;126.30;;;59.57;;
21402;SDS011;10862;51.886;17.078;2023-02-15T00:49:02;130.37;;;60.03;;
21402;SDS011;10862;51.886;17.078;2023-02-15T00:51:28;128.80;;;60.50;;
21402;SDS011;10862;51.886;17.078;2023-02-15T00:53:54;104.17;;;54.57;;
21402;SDS011;10862;51.886;17.078;2023-02-15T00:56:20;115.90;;;55.23;;
21402;SDS011;10862;51.886;17.078;2023-02-15T00:58:46;109.90;;;56.93;;
21402;SDS011;10862;51.886;17.078;2023-02-15T01:01:15;103.20;;;51.93;;
21402;SDS011;10862;51.886;17.078;2023-02-15T01:03:42;103.33;;;51.40;;
21402;SDS011;10862;51.886;17.078;2023-02-15T01:06:08;97.60;;;50.60;;
21402;SDS011;10862;51.886;17.078;2023-02-15T01:08:35;108.67;;;51.50;;
21402;SDS011;10862;51.886;17.078;2023-02-15T01:11:04;104.80;;;49.63;;
21402;SDS011;10862;51.886;17.078;2023-02-15T01:13:39;93.90;;;49.10;;
21402;SDS011;10862;51.886;17.078;2023-02-15T01:16:05;91.93;;;49.10;;
21402;SDS011;10862;51.886;17.078;2023-02-15T01:18:31;104.77;;;51.03;;
21402;SDS011;10862;51.886;17.078;2023-02-15T01:20:57;110.47;;;54.40;;
21402;SDS011;10862;51.886;17.078;2023-02-15T01:23:23;120.20;;;54.00;;
21402;SDS011;10862;51.886;17.078;2023-02-15T01:25:49;113.87;;;53.90;;
21402;SDS011;10862;51.886;17.078;2023-02-15T01:28:14;102.67;;;50.23;;
21402;SDS011;10862;51.886;17.078;2023-02-15T01:30:40;110.03;;;53.43;;
21402;SDS011;10862;51.886;17.078;2023-02-15T01:33:06;101.70;;;49.27;;
21402;SDS011;10862;51.886;17.078;2023-02-15T01:35:32;107.93;;;51.07;;
21402;SDS011;10862;51.886;17.078;2023-02-15T01:37:58;102.57;;;51.57;;
21402;SDS011;10862;51.886;17.078;2023-02-15T01:40:24;110.27;;;48.90;;
21402;SDS011;10862;51.886;17.078;2023-02-15T01:42:51;97.93;;;45.77;;
21402;SDS011;10862;51.886;17.078;2023-02-15T01:50:52;107.67;;;48.50;;
21402;SDS011;10862;51.886;17.078;2023-02-15T01:53:27;127.27;;;53.57;;
21402;SDS011;10862;51.886;17.078;2023-02-15T01:56:04;89.00;;;42.07;;
21402;SDS011;10862;51.886;17.078;2023-02-15T01:58:33;88.87;;;43.33;;
21402;SDS011;10862;51.886;17.078;2023-02-15T02:01:01;91.73;;;42.80;;
21402;SDS011;10862;51.886;17.078;2023-02-15T02:06:32;81.40;;;41.80;;
21402;SDS011;10862;51.886;17.078;2023-02-15T02:09:00;76.17;;;39.00;;
21402;SDS011;10862;51.886;17.078;2023-02-15T02:11:26;95.07;;;47.60;;
21402;SDS011;10862;51.886;17.078;2023-02-15T02:13:52;97.60;;;47.73;;
21402;SDS011;10862;51.886;17.078;2023-02-15T02:35:32;76.30;;;42.83;;
21402;SDS011;10862;51.886;17.078;2023-02-15T02:38:15;92.13;;;46.63;;
21402;SDS011;10862;51.886;17.078;2023-02-15T02:41:20;72.70;;;41.43;;
21402;SDS011;10862;51.886;17.078;2023-02-15T02:44:07;95.47;;;50.77;;
21402;SDS011;10862;51.886;17.078;2023-02-15T02:49:39;100.17;;;49.17;;
21402;SDS011;10862;51.886;17.078;2023-02-15T02:52:33;93.87;;;48.80;;
21402;SDS011;10862;51.886;17.078;2023-02-15T02:55:13;102.90;;;49.90;;
21402;SDS011;10862;51.886;17.078;2023-02-15T02:57:43;96.80;;;50.50;;
21402;SDS011;10862;51.886;17.078;2023-02-15T03:00:24;97.90;;;50.90;;
21402;SDS011;10862;51.886;17.078;2023-02-15T03:03:00;100.90;;;56.97;;
21402;SDS011;10862;51.886;17.078;2023-02-15T03:05:47;94.73;;;51.83;;
21402;SDS011;10862;51.886;17.078;2023-02-15T03:08:16;98.87;;;53.40;;
21402;SDS011;10862;51.886;17.078;2023-02-15T03:10:46;105.83;;;55.33;;
21402;SDS011;10862;51.886;17.078;2023-02-15T03:13:13;100.03;;;55.60;;
21402;SDS011;10862;51.886;17.078;2023-02-15T03:15:40;120.47;;;61.83;;
21402;SDS011;10862;51.886;17.078;2023-02-15T03:18:31;114.67;;;60.30;;
21402;SDS011;10862;51.886;17.078;2023-02-15T03:21:01;131.10;;;67.80;;
21402;SDS011;10862;51.886;17.078;2023-02-15T03:23:30;118.53;;;62.60;;
21402;SDS011;10862;51.886;17.078;2023-02-15T03:26:01;109.63;;;57.17;;
21402;SDS011;10862;51.886;17.078;2023-02-15T03:28:42;112.53;;;60.97;;
21402;SDS011;10862;51.886;17.078;2023-02-15T03:31:11;87.13;;;48.00;;
21402;SDS011;10862;51.886;17.078;2023-02-15T03:33:44;84.23;;;48.90;;
21402;SDS011;10862;51.886;17.078;2023-02-15T03:37:03;97.43;;;55.97;;
21402;SDS011;10862;51.886;17.078;2023-02-15T03:39:45;90.40;;;50.40;;
21402;SDS011;10862;51.886;17.078;2023-02-15T03:42:26;111.70;;;57.00;;
21402;SDS011;10862;51.886;17.078;2023-02-15T03:45:02;100.87;;;56.50;;
21402;SDS011;10862;51.886;17.078;2023-02-15T03:47:39;70.87;;;35.93;;
21402;SDS011;10862;51.886;17.078;2023-02-15T03:50:13;105.10;;;49.47;;
21402;SDS011;10862;51.886;17.078;2023-02-15T03:53:02;89.97;;;45.87;;
21402;SDS011;10862;51.886;17.078;2023-02-15T03:55:29;77.60;;;41.23;;
21402;SDS011;10862;51.886;17.078;2023-02-15T03:57:56;82.57;;;39.77;;
21402;SDS011;10862;51.886;17.078;2023-02-15T04:00:41;77.13;;;39.60;;
21402;SDS011;10862;51.886;17.078;2023-02-15T04:03:59;60.20;;;34.13;;
21402;SDS011;10862;51.886;17.078;2023-02-15T04:06:31;77.30;;;34.80;;
21402;SDS011;10862;51.886;17.078;2023-02-15T04:08:56;59.97;;;32.20;;
21402;SDS011;10862;51.886;17.078;2023-02-15T04:11:40;73.33;;;37.97;;
21402;SDS011;10862;51.886;17.078;2023-02-15T04:14:06;82.93;;;36.23;;
21402;SDS011;10862;51.886;17.078;2023-02-15T04:16:50;68.80;;;32.63;;
21402;SDS011;10862;51.886;17.078;2023-02-15T04:19:16;68.73;;;36.60;;
21402;SDS011;10862;51.886;17.078;2023-02-15T04:22:00;69.70;;;36.50;;
21402;SDS011;10862;51.886;17.078;2023-02-15T04:24:45;70.53;;;34.10;;
21402;SDS011;10862;51.886;17.078;2023-02-15T04:27:29;67.00;;;33.13;;
21402;SDS011;10862;51.886;17.078;2023-02-15T04:29:55;97.77;;;42.67;;
21402;SDS011;10862;51.886;17.078;2023-02-15T04:32:20;67.17;;;34.20;;
21402;SDS011;10862;51.886;17.078;2023-02-15T04:34:46;83.93;;;37.57;;
21402;SDS011;10862;51.886;17.078;2023-02-15T04:37:12;85.03;;;37.37;;
21402;SDS011;10862;51.886;17.078;2023-02-15T04:39:37;81.63;;;39.17;;
21402;SDS011;10862;51.886;17.078;2023-02-15T04:42:03;80.83;;;42.07;;
21402;SDS011;10862;51.886;17.078;2023-02-15T04:44:29;82.27;;;43.37;;
21402;SDS011;10862;51.886;17.078;2023-02-15T04:46:54;93.57;;;43.13;;
21402;SDS011;10862;51.886;17.078;2023-02-15T04:49:20;81.57;;;37.60;;
21402;SDS011;10862;51.886;17.078;2023-02-15T04:51:46;56.47;;;29.00;;
21402;SDS011;10862;51.886;17.078;2023-02-15T04:54:11;63.07;;;34.13;;
21402;SDS011;10862;51.886;17.078;2023-02-15T04:56:37;53.27;;;31.47;;
21402;SDS011;10862;51.886;17.078;2023-02-15T04:59:03;79.73;;;39.30;;
21402;SDS011;10862;51.886;17.078;2023-02-15T05:01:29;85.97;;;45.93;;
21402;SDS011;10862;51.886;17.078;2023-02-15T05:03:56;96.27;;;45.20;;
21402;SDS011;10862;51.886;17.078;2023-02-15T05:06:21;123.47;;;48.17;;
21402;SDS011;10862;51.886;17.078;2023-02-15T05:08:47;97.90;;;45.70;;
21402;SDS011;10862;51.886;17.078;2023-02-15T05:11:13;88.73;;;41.63;;
21402;SDS011;10862;51.886;17.078;2023-02-15T05:13:39;90.43;;;41.17;;
21402;SDS011;10862;51.886;17.078;2023-02-15T05:16:04;105.07;;;46.43;;
21402;SDS011;10862;51.886;17.078;2023-02-15T05:18:30;78.10;;;40.73;;
21402;SDS011;10862;51.886;17.078;2023-02-15T05:20:56;73.63;;;36.73;;
21402;SDS011;10862;51.886;17.078;2023-02-15T05:23:21;74.90;;;38.80;;
21402;SDS011;10862;51.886;17.078;2023-02-15T05:25:48;78.10;;;38.77;;
21402;SDS011;10862;51.886;17.078;2023-02-15T05:28:33;77.63;;;36.77;;
21402;SDS011;10862;51.886;17.078;2023-02-15T05:31:12;75.90;;;39.27;;
21402;SDS011;10862;51.886;17.078;2023-02-15T05:33:39;88.37;;;41.80;;
21402;SDS011;10862;51.886;17.078;2023-02-15T05:36:06;79.67;;;36.53;;
21402;SDS011;10862;51.886;17.078;2023-02-15T05:38:32;87.77;;;41.30;;
21402;SDS011;10862;51.886;17.078;2023-02-15T05:40:58;81.37;;;41.30;;
21402;SDS011;10862;51.886;17.078;2023-02-15T05:43:24;94.93;;;44.37;;
21402;SDS011;10862;51.886;17.078;2023-02-15T05:45:51;119.97;;;52.63;;
21402;SDS011;10862;51.886;17.078;2023-02-15T05:48:18;123.43;;;51.43;;
21402;SDS011;10862;51.886;17.078;2023-02-15T05:50:45;97.80;;;45.10;;
21402;SDS011;10862;51.886;17.078;2023-02-15T05:53:11;107.10;;;49.50;;
21402;SDS011;10862;51.886;17.078;2023-02-15T05:55:38;130.67;;;59.17;;
21402;SDS011;10862;51.886;17.078;2023-02-15T05:58:05;141.50;;;61.30;;
21402;SDS011;10862;51.886;17.078;2023-02-15T06:00:31;120.27;;;57.57;;
21402;SDS011;10862;51.886;17.078;2023-02-15T06:02:57;100.83;;;51.17;;
21402;SDS011;10862;51.886;17.078;2023-02-15T06:05:22;132.87;;;58.33;;
21402;SDS011;10862;51.886;17.078;2023-02-15T06:07:48;109.37;;;53.43;;
21402;SDS011;10862;51.886;17.078;2023-02-15T06:10:14;104.27;;;53.70;;
21402;SDS011;10862;51.886;17.078;2023-02-15T06:12:39;106.90;;;51.37;;
21402;SDS011;10862;51.886;17.078;2023-02-15T06:15:05;93.63;;;49.47;;
21402;SDS011;10862;51.886;17.078;2023-02-15T06:17:31;86.83;;;45.07;;
21402;SDS011;10862;51.886;17.078;2023-02-15T06:19:57;87.10;;;48.13;;
21402;SDS011;10862;51.886;17.078;2023-02-15T06:22:23;88.23;;;50.73;;
21402;SDS011;10862;51.886;17.078;2023-02-15T06:24:48;97.50;;;51.00;;
21402;SDS011;10862;51.886;17.078;2023-02-15T06:27:14;124.77;;;55.47;;
21402;SDS011;10862;51.886;17.078;2023-02-15T06:29:40;152.80;;;71.23;;
21402;SDS011;10862;51.886;17.078;2023-02-15T06:32:05;193.93;;;90.97;;
21402;SDS011;10862;51.886;17.078;2023-02-15T06:34:31;261.33;;;113.13;;
21402;SDS011;10862;51.886;17.078;2023-02-15T06:36:57;160.67;;;81.33;;
21402;SDS011;10862;51.886;17.078;2023-02-15T06:39:23;104.90;;;52.60;;
21402;SDS011;10862;51.886;17.078;2023-02-15T06:41:49;76.30;;;44.63;;
21402;SDS011;10862;51.886;17.078;2023-02-15T06:44:14;83.80;;;49.03;;
21402;SDS011;10862;51.886;17.078;2023-02-15T06:46:40;96.67;;;47.90;;
21402;SDS011;10862;51.886;17.078;2023-02-15T06:49:06;93.20;;;47.10;;
21402;SDS011;10862;51.886;17.078;2023-02-15T06:51:31;84.93;;;44.97;;
21402;SDS011;10862;51.886;17.078;2023-02-15T06:53:58;85.10;;;46.40;;
21402;SDS011;10862;51.886;17.078;2023-02-15T06:56:24;82.53;;;46.97;;
21402;SDS011;10862;51.886;17.078;2023-02-15T06:58:50;94.87;;;47.30;;
21402;SDS011;10862;51.886;17.078;2023-02-15T07:01:17;65.10;;;40.37;;
21402;SDS011;10862;51.886;17.078;2023-02-15T07:03:43;83.87;;;47.77;;
21402;SDS011;10862;51.886;17.078;2023-02-15T07:06:09;80.97;;;47.13;;
21402;SDS011;10862;51.886;17.078;2023-02-15T07:08:36;84.07;;;47.07;;
21402;SDS011;10862;51.886;17.078;2023-02-15T07:11:03;92.23;;;46.53;;
21402;SDS011;10862;51.886;17.078;2023-02-15T07:13:48;96.97;;;49.80;;
21402;SDS011;10862;51.886;17.078;2023-02-15T07:16:14;74.80;;;44.47;;
21402;SDS011;10862;51.886;17.078;2023-02-15T07:18:40;77.00;;;47.43;;
21402;SDS011;10862;51.886;17.078;2023-02-15T07:21:06;92.80;;;50.77;;
21402;SDS011;10862;51.886;17.078;2023-02-15T07:23:38;80.93;;;48.10;;
21402;SDS011;10862;51.886;17.078;2023-02-15T07:26:05;90.17;;;50.77;;
21402;SDS011;10862;51.886;17.078;2023-02-15T07:28:32;98.07;;;53.33;;
21402;SDS011;10862;51.886;17.078;2023-02-15T07:31:00;99.60;;;55.00;;
21402;SDS011;10862;51.886;17.078;2023-02-15T07:33:30;75.13;;;46.00;;
21402;SDS011;10862;51.886;17.078;2023-02-15T07:35:58;81.00;;;46.30;;
21402;SDS011;10862;51.886;17.078;2023-02-15T07:38:27;81.00;;;47.43;;
21402;SDS011;10862;51.886;17.078;2023-02-15T07:41:04;92.83;;;51.50;;
21402;SDS011;10862;51.886;17.078;2023-02-15T07:43:32;75.53;;;44.33;;
21402;SDS011;10862;51.886;17.078;2023-02-15T07:46:00;62.33;;;42.67;;
21402;SDS011;10862;51.886;17.078;2023-02-15T07:48:27;70.87;;;36.77;;
21402;SDS011;10862;51.886;17.078;2023-02-15T07:50:53;58.43;;;34.73;;
21402;SDS011;10862;51.886;17.078;2023-02-15T07:53:19;68.83;;;40.83;;
21402;SDS011;10862;51.886;17.078;2023-02-15T07:55:45;65.67;;;39.03;;
21402;SDS011;10862;51.886;17.078;2023-02-15T07:58:11;53.23;;;33.73;;
21402;SDS011;10862;51.886;17.078;2023-02-15T08:00:36;90.13;;;45.30;;
21402;SDS011;10862;51.886;17.078;2023-02-15T08:03:25;68.93;;;39.70;;
21402;SDS011;10862;51.886;17.078;2023-02-15T08:05:58;79.20;;;42.87;;
21402;SDS011;10862;51.886;17.078;2023-02-15T08:08:27;87.43;;;45.67;;
21402;SDS011;10862;51.886;17.078;2023-02-15T08:11:15;79.93;;;40.47;;
21402;SDS011;10862;51.886;17.078;2023-02-15T08:21:35;61.37;;;37.50;;
21402;SDS011;10862;51.886;17.078;2023-02-15T08:24:03;45.00;;;26.73;;
21402;SDS011;10862;51.886;17.078;2023-02-15T08:26:30;68.47;;;39.37;;
21402;SDS011;10862;51.886;17.078;2023-02-15T08:28:57;52.37;;;35.77;;
21402;SDS011;10862;51.886;17.078;2023-02-15T08:31:23;55.13;;;31.37;;
21402;SDS011;10862;51.886;17.078;2023-02-15T08:33:49;46.43;;;28.67;;
21402;SDS011;10862;51.886;17.078;2023-02-15T08:36:20;56.17;;;33.03;;
21402;SDS011;10862;51.886;17.078;2023-02-15T08:38:47;70.63;;;37.83;;
21402;SDS011;10862;51.886;17.078;2023-02-15T08:41:23;66.97;;;36.83;;
21402;SDS011;10862;51.886;17.078;2023-02-15T08:43:51;69.47;;;37.20;;
21402;SDS011;10862;51.886;17.078;2023-02-15T08:46:19;63.90;;;41.87;;
21402;SDS011;10862;51.886;17.078;2023-02-15T08:48:45;61.13;;;35.73;;
21402;SDS011;10862;51.886;17.078;2023-02-15T08:51:13;59.63;;;36.67;;
21402;SDS011;10862;51.886;17.078;2023-02-15T08:53:45;63.73;;;38.97;;
21402;SDS011;10862;51.886;17.078;2023-02-15T08:56:14;78.20;;;42.43;;
21402;SDS011;10862;51.886;17.078;2023-02-15T08:58:40;87.57;;;47.20;;
21402;SDS011;10862;51.886;17.078;2023-02-15T09:01:10;69.93;;;44.43;;
21402;SDS011;10862;51.886;17.078;2023-02-15T09:03:35;63.50;;;41.47;;
21402;SDS011;10862;51.886;17.078;2023-02-15T09:06:01;65.23;;;42.97;;
21402;SDS011;10862;51.886;17.078;2023-02-15T09:08:28;62.70;;;41.13;;
21402;SDS011;10862;51.886;17.078;2023-02-15T09:11:04;63.80;;;41.43;;
21402;SDS011;10862;51.886;17.078;2023-02-15T09:13:33;67.40;;;39.17;;
21402;SDS011;10862;51.886;17.078;2023-02-15T09:16:00;53.83;;;30.93;;
21402;SDS011;10862;51.886;17.078;2023-02-15T09:18:31;50.63;;;34.97;;
21402;SDS011;10862;51.886;17.078;2023-02-15T09:21:03;52.50;;;36.30;;
21402;SDS011;10862;51.886;17.078;2023-02-15T09:23:33;46.00;;;32.60;;
21402;SDS011;10862;51.886;17.078;2023-02-15T09:26:03;56.40;;;41.03;;
21402;SDS011;10862;51.886;17.078;2023-02-15T09:28:31;63.83;;;45.93;;
21402;SDS011;10862;51.886;17.078;2023-02-15T09:31:04;60.93;;;43.60;;
21402;SDS011;10862;51.886;17.078;2023-02-15T09:33:35;62.87;;;39.43;;
21402;SDS011;10862;51.886;17.078;2023-02-15T09:36:05;64.40;;;44.10;;
21402;SDS011;10862;51.886;17.078;2023-02-15T09:38:38;66.67;;;43.40;;
21402;SDS011;10862;51.886;17.078;2023-02-15T10:05:53;79.40;;;47.13;;
21402;SDS011;10862;51.886;17.078;2023-02-15T10:08:19;81.27;;;49.50;;
21402;SDS011;10862;51.886;17.078;2023-02-15T10:13:57;60.83;;;43.03;;
21402;SDS011;10862;51.886;17.078;2023-02-15T10:20:08;56.97;;;42.43;;
21402;SDS011;10862;51.886;17.078;2023-02-15T10:28:17;67.13;;;46.07;;
21402;SDS011;10862;51.886;17.078;2023-02-15T10:39:29;52.70;;;38.53;;
21402;SDS011;10862;51.886;17.078;2023-02-15T10:45:04;56.43;;;39.43;;
21402;SDS011;10862;51.886;17.078;2023-02-15T10:47:38;69.90;;;45.27;;
21402;SDS011;10862;51.886;17.078;2023-02-15T10:53:19;65.07;;;43.40;;
21402;SDS011;10862;51.886;17.078;2023-02-15T11:07:03;70.13;;;43.53;;
21402;SDS011;10862;51.886;17.078;2023-02-15T11:09:37;59.80;;;41.13;;
21402;SDS011;10862;51.886;17.078;2023-02-15T11:12:08;64.27;;;41.37;;
21402;SDS011;10862;51.886;17.078;2023-02-15T11:17:21;59.03;;;40.63;;
21402;SDS011;10862;51.886;17.078;2023-02-15T11:23:00;67.03;;;41.10;;
21402;SDS011;10862;51.886;17.078;2023-02-15T11:25:31;78.93;;;48.57;;
21402;SDS011;10862;51.886;17.078;2023-02-15T11:28:00;78.67;;;41.67;;
21402;SDS011;10862;51.886;17.078;2023-02-15T11:30:32;46.73;;;31.23;;
21402;SDS011;10862;51.886;17.078;2023-02-15T11:33:13;45.37;;;35.10;;
21402;SDS011;10862;51.886;17.078;2023-02-15T11:35:54;50.07;;;35.77;;
21402;SDS011;10862;51.886;17.078;2023-02-15T11:38:29;54.67;;;36.27;;
21402;SDS011;10862;51.886;17.078;2023-02-15T11:43:43;43.17;;;32.17;;
21402;SDS011;10862;51.886;17.078;2023-02-15T11:46:19;53.07;;;36.17;;
21402;SDS011;10862;51.886;17.078;2023-02-15T11:48:46;47.47;;;34.60;;
21402;SDS011;10862;51.886;17.078;2023-02-15T11:51:13;44.93;;;31.00;;
21402;SDS011;10862;51.886;17.078;2023-02-15T11:53:42;49.17;;;35.43;;
21402;SDS011;10862;51.886;17.078;2023-02-15T11:56:13;68.40;;;42.87;;
21402;SDS011;10862;51.886;17.078;2023-02-15T11:58:48;55.67;;;36.93;;
21402;SDS011;10862;51.886;17.078;2023-02-15T12:04:10;49.80;;;32.90;;
21402;SDS011;10862;51.886;17.078;2023-02-15T12:06:46;57.37;;;35.73;;
21402;SDS011;10862;51.886;17.078;2023-02-15T12:14:50;65.23;;;38.27;;
21402;SDS011;10862;51.886;17.078;2023-02-15T12:17:18;52.57;;;35.67;;
21402;SDS011;10862;51.886;17.078;2023-02-15T12:19:47;32.07;;;28.90;;
21402;SDS011;10862;51.886;17.078;2023-02-15T12:22:24;52.40;;;35.50;;
21402;SDS011;10862;51.886;17.078;2023-02-15T12:24:58;49.77;;;34.73;;
21402;SDS011;10862;51.886;17.078;2023-02-15T12:27:33;50.73;;;35.07;;
21402;SDS011;10862;51.886;17.078;2023-02-15T12:32:36;56.63;;;38.37;;
21402;SDS011;10862;51.886;17.078;2023-02-15T12:37:54;48.10;;;34.67;;
21402;SDS011;10862;51.886;17.078;2023-02-15T12:40:40;53.10;;;36.97;;
21402;SDS011;10862;51.886;17.078;2023-02-15T12:43:23;74.57;;;41.73;;
21402;SDS011;10862;51.886;17.078;2023-02-15T12:46:13;126.70;;;58.73;;
21402;SDS011;10862;51.886;17.078;2023-02-15T12:48:46;130.73;;;60.40;;
21402;SDS011;10862;51.886;17.078;2023-02-15T12:51:14;115.60;;;51.90;;
21402;SDS011;10862;51.886;17.078;2023-02-15T12:53:40;113.23;;;54.87;;
21402;SDS011;10862;51.886;17.078;2023-02-15T12:56:07;93.73;;;45.20;;
21402;SDS011;10862;51.886;17.078;2023-02-15T12:58:38;127.17;;;61.63;;
21402;SDS011;10862;51.886;17.078;2023-02-15T13:03:37;105.93;;;52.87;;
21402;SDS011;10862;51.886;17.078;2023-02-15T13:06:24;70.67;;;43.23;;
21402;SDS011;10862;51.886;17.078;2023-02-15T13:08:55;102.13;;;53.40;;
21402;SDS011;10862;51.886;17.078;2023-02-15T13:11:30;146.80;;;66.80;;
21402;SDS011;10862;51.886;17.078;2023-02-15T13:14:01;175.57;;;73.60;;
21402;SDS011;10862;51.886;17.078;2023-02-15T13:16:42;159.70;;;68.23;;
21402;SDS011;10862;51.886;17.078;2023-02-15T13:19:15;131.57;;;52.07;;
21402;SDS011;10862;51.886;17.078;2023-02-15T13:21:44;80.63;;;44.27;;
21402;SDS011;10862;51.886;17.078;2023-02-15T13:26:49;200.57;;;80.23;;
21402;SDS011;10862;51.886;17.078;2023-02-15T13:29:18;114.60;;;54.37;;
21402;SDS011;10862;51.886;17.078;2023-02-15T13:31:48;71.93;;;41.07;;
21402;SDS011;10862;51.886;17.078;2023-02-15T13:34:17;132.23;;;66.43;;
21402;SDS011;10862;51.886;17.078;2023-02-15T13:37:06;79.00;;;42.93;;
21402;SDS011;10862;51.886;17.078;2023-02-15T13:40:17;110.70;;;52.97;;
21402;SDS011;10862;51.886;17.078;2023-02-15T13:46:10;121.50;;;58.47;;
21402;SDS011;10862;51.886;17.078;2023-02-15T13:52:28;86.07;;;43.27;;
21402;SDS011;10862;51.886;17.078;2023-02-15T14:02:48;151.00;;;78.77;;
21402;SDS011;10862;51.886;17.078;2023-02-15T14:19:39;286.53;;;101.80;;
21402;SDS011;10862;51.886;17.078;2023-02-15T14:24:40;168.67;;;66.80;;
21402;SDS011;10862;51.886;17.078;2023-02-15T14:30:03;164.47;;;69.03;;
21402;SDS011;10862;51.886;17.078;2023-02-15T14:32:41;210.30;;;80.07;;
21402;SDS011;10862;51.886;17.078;2023-02-15T14:35:14;140.33;;;63.53;;
21402;SDS011;10862;51.886;17.078;2023-02-15T14:52:02;163.70;;;75.40;;
21402;SDS011;10862;51.886;17.078;2023-02-15T14:59:36;156.87;;;66.43;;
21402;SDS011;10862;51.886;17.078;2023-02-15T15:07:48;256.30;;;90.13;;
21402;SDS011;10862;51.886;17.078;2023-02-15T15:12:43;344.40;;;121.27;;
21402;SDS011;10862;51.886;17.078;2023-02-15T15:15:15;180.37;;;84.70;;
21402;SDS011;10862;51.886;17.078;2023-02-15T15:18:10;272.60;;;97.70;;
21402;SDS011;10862;51.886;17.078;2023-02-15T15:20:56;408.30;;;141.73;;
21402;SDS011;10862;51.886;17.078;2023-02-15T15:25:48;144.90;;;73.60;;
21402;SDS011;10862;51.886;17.078;2023-02-15T15:41:53;650.93;;;232.87;;
21402;SDS011;10862;51.886;17.078;2023-02-15T15:49:56;616.17;;;228.33;;
21402;SDS011;10862;51.886;17.078;2023-02-15T15:52:23;582.63;;;227.63;;
21402;SDS011;10862;51.886;17.078;2023-02-15T15:55:05;261.07;;;118.63;;
21402;SDS011;10862;51.886;17.078;2023-02-15T15:57:43;236.90;;;101.63;;
21402;SDS011;10862;51.886;17.078;2023-02-15T16:03:04;404.20;;;175.90;;
21402;SDS011;10862;51.886;17.078;2023-02-15T16:05:37;313.57;;;142.97;;
21402;SDS011;10862;51.886;17.078;2023-02-15T16:08:03;266.53;;;142.50;;
21402;SDS011;10862;51.886;17.078;2023-02-15T16:10:29;274.80;;;131.97;;
21402;SDS011;10862;51.886;17.078;2023-02-15T16:13:00;358.97;;;165.90;;
21402;SDS011;10862;51.886;17.078;2023-02-15T16:15:31;282.83;;;130.67;;
21402;SDS011;10862;51.886;17.078;2023-02-15T16:18:17;397.23;;;179.20;;
21402;SDS011;10862;51.886;17.078;2023-02-15T16:20:55;389.87;;;171.60;;
21402;SDS011;10862;51.886;17.078;2023-02-15T16:23:39;298.90;;;138.17;;
21402;SDS011;10862;51.886;17.078;2023-02-15T16:29:23;339.60;;;149.00;;
21402;SDS011;10862;51.886;17.078;2023-02-15T16:34:31;262.57;;;118.10;;
21402;SDS011;10862;51.886;17.078;2023-02-15T16:39:40;635.20;;;270.90;;
21402;SDS011;10862;51.886;17.078;2023-02-15T16:42:07;685.73;;;297.43;;
21402;SDS011;10862;51.886;17.078;2023-02-15T16:44:34;596.73;;;246.90;;
21402;SDS011;10862;51.886;17.078;2023-02-15T16:47:00;553.00;;;225.47;;
21402;SDS011;10862;51.886;17.078;2023-02-15T16:49:27;574.37;;;222.33;;
21402;SDS011;10862;51.886;17.078;2023-02-15T16:52:01;599.20;;;230.50;;
21402;SDS011;10862;51.886;17.078;2023-02-15T16:54:31;474.67;;;174.13;;
21402;SDS011;10862;51.886;17.078;2023-02-15T16:56:57;571.20;;;223.90;;
21402;SDS011;10862;51.886;17.078;2023-02-15T16:59:38;395.27;;;138.70;;
21402;SDS011;10862;51.886;17.078;2023-02-15T17:02:18;714.90;;;251.03;;
21402;SDS011;10862;51.886;17.078;2023-02-15T17:05:00;1065.67;;;397.27;;
21402;SDS011;10862;51.886;17.078;2023-02-15T17:07:26;1096.40;;;426.43;;
21402;SDS011;10862;51.886;17.078;2023-02-15T17:09:55;957.70;;;403.73;;
21402;SDS011;10862;51.886;17.078;2023-02-15T17:18:21;388.30;;;146.77;;
21402;SDS011;10862;51.886;17.078;2023-02-15T17:20:48;246.70;;;101.77;;
21402;SDS011;10862;51.886;17.078;2023-02-15T17:25:54;228.37;;;98.07;;
21402;SDS011;10862;51.886;17.078;2023-02-15T17:28:21;230.70;;;101.13;;
21402;SDS011;10862;51.886;17.078;2023-02-15T17:30:51;226.80;;;98.67;;
21402;SDS011;10862;51.886;17.078;2023-02-15T17:33:23;251.07;;;104.03;;
21402;SDS011;10862;51.886;17.078;2023-02-15T17:38:32;312.17;;;130.50;;
21402;SDS011;10862;51.886;17.078;2023-02-15T17:40:58;429.00;;;165.87;;
21402;SDS011;10862;51.886;17.078;2023-02-15T17:43:24;382.17;;;139.97;;
21402;SDS011;10862;51.886;17.078;2023-02-15T17:45:50;545.50;;;206.07;;
21402;SDS011;10862;51.886;17.078;2023-02-15T17:48:24;289.97;;;108.67;;
21402;SDS011;10862;51.886;17.078;2023-02-15T17:51:00;224.35;;;92.10;;
21402;SDS011;10862;51.886;17.078;2023-02-15T17:53:28;232.47;;;86.63;;
21402;SDS011;10862;51.886;17.078;2023-02-15T17:55:54;224.67;;;87.27;;
21402;SDS011;10862;51.886;17.078;2023-02-15T17:58:20;209.70;;;87.70;;
21402;SDS011;10862;51.886;17.078;2023-02-15T18:00:56;185.27;;;82.27;;
21402;SDS011;10862;51.886;17.078;2023-02-15T18:03:49;169.00;;;70.17;;
21402;SDS011;10862;51.886;17.078;2023-02-15T18:06:35;177.03;;;74.63;;
21402;SDS011;10862;51.886;17.078;2023-02-15T18:09:22;176.60;;;73.03;;
21402;SDS011;10862;51.886;17.078;2023-02-15T18:12:18;170.07;;;73.20;;
21402;SDS011;10862;51.886;17.078;2023-02-15T18:14:46;214.37;;;91.10;;
21402;SDS011;10862;51.886;17.078;2023-02-15T18:17:12;219.00;;;98.87;;